createdAt,value
2018-07-23T00:00:45.584Z,99.90
2018-07-23T00:03:13.640Z,99.90
2018-07-23T00:05:41.697Z,99.90
2018-07-23T00:08:09.736Z,99.90
2018-07-23T00:10:37.781Z,99.90
2018-07-23T00:13:05.828Z,99.90
2018-07-23T00:15:33.872Z,99.90
2018-07-23T00:18:01.920Z,99.90
2018-07-23T00:20:29.988Z,99.90
2018-07-23T00:22:58.051Z,99.90
2018-07-23T00:25:26.200Z,99.90
2018-07-23T00:27:54.268Z,99.90
2018-07-23T00:30:22.328Z,99.90
2018-07-23T00:32:50.396Z,99.90
2018-07-23T00:35:18.461Z,99.90
2018-07-23T00:37:46.528Z,99.90
2018-07-23T00:40:14.736Z,99.90
2018-07-23T00:42:42.861Z,99.90
2018-07-23T00:45:10.933Z,99.90
2018-07-23T00:47:39.207Z,99.90
2018-07-23T00:50:07.274Z,99.90
2018-07-23T00:52:35.895Z,99.90
2018-07-23T00:55:04.069Z,99.90
2018-07-23T00:57:32.261Z,99.90
2018-07-23T01:00:00.753Z,99.90
2018-07-23T01:02:28.843Z,99.90
2018-07-23T01:04:57.116Z,99.90
2018-07-23T01:07:25.364Z,99.90
2018-07-23T01:09:53.900Z,99.90
2018-07-23T01:12:29.780Z,99.90
2018-07-23T01:14:57.848Z,99.90
2018-07-23T01:17:25.900Z,99.90
2018-07-23T01:19:55.359Z,99.90
2018-07-23T01:22:24.460Z,99.90
2018-07-23T01:24:52.688Z,99.90
2018-07-23T01:27:20.847Z,99.90
2018-07-23T01:29:49.131Z,99.90
2018-07-23T01:32:17.524Z,99.90
2018-07-23T01:34:45.588Z,99.90
2018-07-23T01:37:13.665Z,99.90
2018-07-23T01:39:41.737Z,99.90
2018-07-23T01:42:09.943Z,99.90
2018-07-23T01:44:38.177Z,99.90
2018-07-23T01:47:07.056Z,99.90
2018-07-23T01:49:35.243Z,99.90
2018-07-23T01:52:03.637Z,99.90
2018-07-23T01:54:31.712Z,99.90
2018-07-23T01:57:00.070Z,99.90
2018-07-23T01:59:28.172Z,99.90
2018-07-23T02:01:56.376Z,99.90
2018-07-23T02:04:24.440Z,99.90
2018-07-23T02:06:52.504Z,99.90
2018-07-23T02:09:20.577Z,99.90
2018-07-23T02:11:48.632Z,99.90
2018-07-23T02:14:16.699Z,99.90
2018-07-23T02:16:44.765Z,99.90
2018-07-23T02:19:12.836Z,99.90
2018-07-23T02:21:40.892Z,99.90
2018-07-23T02:24:08.939Z,99.90
2018-07-23T02:26:36.984Z,99.90
2018-07-23T02:29:05.041Z,99.90
2018-07-23T02:31:33.081Z,99.90
2018-07-23T02:34:01.131Z,99.90
2018-07-23T02:36:29.184Z,99.90
2018-07-23T02:38:57.225Z,99.90
2018-07-23T02:41:25.268Z,99.90
2018-07-23T02:43:53.325Z,99.90
2018-07-23T02:46:21.377Z,99.90
2018-07-23T02:48:49.424Z,99.90
2018-07-23T02:51:17.464Z,99.90
2018-07-23T02:53:45.517Z,99.90
2018-07-23T02:56:13.560Z,99.90
2018-07-23T02:58:41.611Z,99.90
2018-07-23T03:01:09.664Z,99.90
2018-07-23T03:03:37.709Z,99.90
2018-07-23T03:06:05.749Z,99.90
2018-07-23T03:08:33.799Z,99.90
2018-07-23T03:11:01.860Z,99.90
2018-07-23T03:13:29.936Z,99.90
2018-07-23T03:15:57.999Z,99.90
2018-07-23T03:18:26.064Z,99.90
2018-07-23T03:20:54.154Z,99.90
2018-07-23T03:23:22.211Z,99.90
2018-07-23T03:25:50.284Z,99.90
2018-07-23T03:28:18.364Z,99.90
2018-07-23T03:30:46.433Z,99.90
2018-07-23T03:33:14.492Z,99.90
2018-07-23T03:35:42.561Z,99.90
2018-07-23T03:38:10.613Z,99.90
2018-07-23T03:40:38.675Z,99.90
2018-07-23T03:43:06.735Z,99.90
2018-07-23T03:45:34.809Z,99.90
2018-07-23T03:48:02.873Z,99.90
2018-07-23T03:50:30.936Z,99.90
2018-07-23T03:52:58.995Z,99.90
2018-07-23T03:55:27.072Z,99.90
2018-07-23T03:57:55.128Z,99.90
2018-07-23T04:00:23.202Z,99.90
2018-07-23T04:02:51.267Z,99.90
2018-07-23T04:05:19.332Z,99.90
2018-07-23T04:07:47.390Z,99.90
2018-07-23T04:10:15.464Z,99.90
2018-07-23T04:12:43.528Z,99.90
2018-07-23T04:15:11.628Z,99.90
2018-07-23T04:17:39.708Z,99.90
2018-07-23T04:20:07.788Z,99.90
2018-07-23T04:22:35.924Z,99.90
2018-07-23T04:25:03.972Z,99.90
2018-07-23T04:27:32.013Z,99.90
2018-07-23T04:30:00.067Z,99.90
2018-07-23T04:32:28.105Z,99.90
2018-07-23T04:34:56.157Z,99.90
2018-07-23T04:37:24.216Z,99.90
2018-07-23T04:39:52.268Z,99.90
2018-07-23T04:42:20.333Z,99.90
2018-07-23T04:44:48.383Z,99.90
2018-07-23T04:47:16.423Z,99.90
2018-07-23T04:49:44.481Z,99.90
2018-07-23T04:52:12.524Z,99.90
2018-07-23T04:54:40.569Z,99.90
2018-07-23T04:57:08.612Z,99.90
2018-07-23T04:59:36.656Z,99.90
2018-07-23T05:02:04.692Z,99.90
2018-07-23T05:07:00.584Z,99.90
2018-07-23T05:09:28.628Z,99.90
2018-07-23T05:11:56.676Z,99.90
2018-07-23T05:14:24.729Z,99.90
2018-07-23T05:16:52.767Z,99.90
2018-07-23T05:19:20.817Z,99.90
2018-07-23T05:21:48.873Z,99.90
2018-07-23T05:24:16.919Z,99.90
2018-07-23T05:26:44.959Z,99.90
2018-07-23T05:29:13.004Z,99.90
2018-07-23T05:31:41.086Z,99.90
2018-07-23T05:34:09.100Z,99.90
2018-07-23T05:36:37.156Z,99.90
2018-07-23T05:39:07.775Z,99.90
2018-07-23T05:41:35.824Z,99.90
2018-07-23T05:44:03.860Z,99.90
2018-07-23T05:48:59.757Z,99.90
2018-07-23T05:51:27.800Z,99.90
2018-07-23T05:53:55.841Z,99.90
2018-07-23T05:56:23.927Z,99.90
2018-07-23T05:58:51.979Z,99.90
2018-07-23T06:01:20.301Z,99.90
2018-07-23T06:03:48.352Z,99.90
2018-07-23T06:06:16.445Z,99.90
2018-07-23T06:08:44.460Z,99.90
2018-07-23T06:11:12.503Z,99.90
2018-07-23T06:13:40.548Z,99.90
2018-07-23T06:16:08.812Z,99.90
2018-07-23T06:18:36.852Z,99.90
2018-07-23T06:21:05.086Z,99.90
2018-07-23T06:23:33.364Z,99.90
2018-07-23T06:26:01.468Z,99.90
2018-07-23T06:28:29.524Z,99.90
2018-07-23T06:30:57.601Z,99.90
2018-07-23T06:33:25.668Z,99.90
2018-07-23T06:35:53.773Z,99.90
2018-07-23T06:38:21.829Z,99.90
2018-07-23T06:40:49.895Z,99.90
2018-07-23T06:43:17.982Z,99.90
2018-07-23T06:45:46.036Z,99.90
2018-07-23T06:48:14.104Z,99.90
2018-07-23T06:50:42.173Z,99.90
2018-07-23T06:53:10.280Z,99.70
2018-07-23T06:55:38.348Z,97.10
2018-07-23T06:58:06.424Z,96.50
2018-07-23T07:00:34.544Z,96.70
2018-07-23T07:03:02.549Z,96.80
2018-07-23T07:05:30.617Z,96.00
2018-07-23T07:07:58.674Z,95.80
2018-07-23T07:10:26.745Z,95.00
2018-07-23T07:12:54.805Z,95.60
2018-07-23T07:15:22.880Z,97.20
2018-07-23T07:17:50.932Z,98.90
2018-07-23T07:20:18.989Z,99.50
2018-07-23T07:22:47.032Z,98.40
2018-07-23T07:25:15.078Z,97.50
2018-07-23T07:27:43.112Z,97.90
2018-07-23T07:30:11.155Z,97.60
2018-07-23T07:32:39.203Z,97.60
2018-07-23T07:35:07.240Z,97.80
2018-07-23T07:37:35.293Z,97.80
2018-07-23T07:40:03.339Z,99.00
2018-07-23T07:42:31.397Z,98.30
2018-07-23T07:44:59.441Z,97.80
2018-07-23T07:47:27.492Z,99.90
2018-07-23T07:49:55.536Z,99.30
2018-07-23T07:52:23.601Z,98.30
2018-07-23T07:54:51.625Z,99.90
2018-07-23T07:57:19.677Z,99.70
2018-07-23T07:59:47.793Z,98.90
2018-07-23T08:02:15.836Z,96.10
2018-07-23T08:04:43.872Z,98.70
2018-07-23T08:07:11.985Z,99.20
2018-07-23T08:09:39.966Z,98.10
2018-07-23T08:12:08.025Z,97.90
2018-07-23T08:14:36.067Z,96.80
2018-07-23T08:17:04.112Z,97.30
2018-07-23T08:19:32.168Z,97.00
2018-07-23T08:22:00.216Z,96.30
2018-07-23T08:24:28.257Z,95.30
2018-07-23T08:26:56.308Z,95.10
2018-07-23T08:29:24.352Z,95.30
2018-07-23T08:31:52.461Z,93.80
2018-07-23T08:34:20.448Z,93.50
2018-07-23T08:36:48.504Z,93.30
2018-07-23T08:39:16.552Z,93.90
2018-07-23T08:41:44.628Z,93.50
2018-07-23T08:44:12.692Z,91.60
2018-07-23T08:46:40.748Z,91.90
2018-07-23T08:49:08.792Z,89.50
2018-07-23T08:51:36.859Z,91.70
2018-07-23T08:54:04.905Z,90.90
2018-07-23T08:56:32.952Z,91.60
2018-07-23T08:59:00.993Z,89.10
2018-07-23T09:01:29.039Z,91.70
2018-07-23T09:03:57.130Z,91.30
2018-07-23T09:06:25.176Z,91.60
2018-07-23T09:08:53.229Z,91.20
2018-07-23T09:11:21.291Z,90.90
2018-07-23T09:13:49.335Z,88.00
2018-07-23T09:16:17.752Z,88.60
2018-07-23T09:18:45.800Z,87.90
2018-07-23T09:21:13.862Z,85.80
2018-07-23T09:23:41.937Z,84.30
2018-07-23T09:26:09.960Z,85.00
2018-07-23T09:28:38.020Z,86.10
2018-07-23T09:31:06.568Z,83.90
2018-07-23T09:33:34.592Z,80.60
2018-07-23T09:36:02.647Z,77.20
2018-07-23T09:38:30.687Z,78.20
2018-07-23T09:40:58.740Z,77.60
2018-07-23T09:43:26.796Z,76.10
2018-07-23T09:45:54.847Z,74.80
2018-07-23T09:48:22.904Z,73.50
2018-07-23T09:50:50.948Z,77.40
2018-07-23T09:53:19.004Z,74.30
2018-07-23T09:55:47.048Z,71.80
2018-07-23T09:58:15.117Z,70.60
2018-07-23T10:00:48.626Z,69.40
2018-07-23T10:03:16.836Z,76.50
2018-07-23T10:05:44.732Z,76.30
2018-07-23T10:10:40.641Z,72.50
2018-07-23T10:13:08.688Z,72.90
2018-07-23T10:15:36.748Z,70.70
2018-07-23T10:18:04.796Z,69.80
2018-07-23T10:20:32.869Z,66.60
2018-07-23T10:23:00.944Z,70.20
2018-07-23T10:25:29.016Z,74.30
2018-07-23T10:27:57.097Z,71.80
2018-07-23T10:30:25.164Z,71.00
2018-07-23T10:32:53.232Z,69.10
2018-07-23T10:35:21.652Z,65.90
2018-07-23T10:37:49.728Z,64.90
2018-07-23T10:42:45.857Z,66.00
2018-07-23T10:45:13.928Z,66.20
2018-07-23T10:47:42.007Z,65.80
2018-07-23T10:50:10.066Z,64.30
2018-07-23T10:55:05.996Z,65.00
2018-07-23T10:57:34.064Z,69.70
2018-07-23T11:00:02.144Z,67.70
2018-07-23T11:02:30.222Z,59.60
2018-07-23T11:04:58.392Z,59.90
2018-07-23T11:07:26.525Z,62.40
2018-07-23T11:09:54.529Z,58.50
2018-07-23T11:12:22.604Z,59.10
2018-07-23T11:14:50.664Z,59.70
2018-07-23T11:17:18.821Z,64.30
2018-07-23T11:19:47.018Z,60.70
2018-07-23T11:22:15.110Z,58.70
2018-07-23T11:24:45.620Z,61.30
2018-07-23T11:27:11.266Z,57.20
2018-07-23T11:29:39.617Z,58.30
2018-07-23T11:32:07.686Z,58.30
2018-07-23T11:34:35.701Z,59.20
2018-07-23T11:37:03.756Z,58.40
2018-07-23T11:39:31.827Z,58.70
2018-07-23T11:41:59.884Z,59.20
2018-07-23T11:44:27.956Z,61.30
2018-07-23T11:46:56.017Z,58.00
2018-07-23T11:49:24.080Z,60.70
2018-07-23T11:51:52.150Z,58.50
2018-07-23T11:54:20.220Z,57.40
2018-07-23T11:56:48.290Z,58.30
2018-07-23T11:59:16.368Z,58.10
2018-07-23T12:01:44.532Z,60.50
2018-07-23T12:04:12.549Z,57.50
2018-07-23T12:06:40.592Z,56.80
2018-07-23T12:09:10.049Z,58.20
2018-07-23T12:11:38.128Z,58.70
2018-07-23T12:14:06.728Z,54.80
2018-07-23T12:16:34.920Z,53.20
2018-07-23T12:19:02.975Z,52.20
2018-07-23T12:21:31.039Z,53.60
2018-07-23T12:23:59.100Z,54.60
2018-07-23T12:26:27.139Z,55.40
2018-07-23T12:28:55.218Z,55.40
2018-07-23T12:31:23.235Z,52.60
2018-07-23T12:33:51.280Z,51.40
2018-07-23T12:36:19.329Z,49.90
2018-07-23T12:38:47.372Z,55.40
2018-07-23T12:41:15.412Z,50.80
2018-07-23T12:43:43.464Z,50.10
2018-07-23T12:46:11.505Z,51.30
2018-07-23T12:48:39.552Z,50.40
2018-07-23T12:51:08.045Z,49.10
2018-07-23T12:53:36.084Z,50.40
2018-07-23T12:56:04.128Z,50.30
2018-07-23T12:58:32.177Z,49.60
2018-07-23T13:01:00.228Z,49.60
2018-07-23T13:03:28.270Z,49.20
2018-07-23T13:05:56.305Z,50.00
2018-07-23T13:08:24.348Z,49.50
2018-07-23T13:10:52.408Z,48.70
2018-07-23T13:13:20.455Z,48.10
2018-07-23T13:15:48.487Z,48.10
2018-07-23T13:18:16.528Z,46.90
2018-07-23T13:20:44.573Z,48.80
2018-07-23T13:23:12.636Z,47.60
2018-07-23T13:25:40.769Z,47.20
2018-07-23T13:28:08.760Z,47.70
2018-07-23T13:30:36.804Z,47.20
2018-07-23T13:33:04.876Z,49.60
2018-07-23T13:35:32.913Z,48.80
2018-07-23T13:38:01.050Z,50.30
2018-07-23T13:40:29.065Z,48.90
2018-07-23T13:42:57.232Z,48.90
2018-07-23T13:45:25.531Z,48.00
2018-07-23T13:47:53.560Z,47.80
2018-07-23T13:50:21.611Z,47.60
2018-07-23T13:52:49.648Z,47.70
2018-07-23T13:55:17.692Z,47.70
2018-07-23T13:57:45.739Z,47.90
2018-07-23T14:00:13.786Z,47.80
2018-07-23T14:02:41.859Z,49.70
2018-07-23T14:05:09.896Z,48.70
2018-07-23T14:07:37.932Z,49.30
2018-07-23T14:10:05.983Z,47.00
2018-07-23T14:12:34.020Z,48.70
2018-07-23T14:15:02.118Z,48.00
2018-07-23T14:17:30.107Z,48.20
2018-07-23T14:19:58.158Z,50.10
2018-07-23T14:22:26.209Z,50.00
2018-07-23T14:24:54.263Z,50.20
2018-07-23T14:27:22.292Z,47.10
2018-07-23T14:29:50.335Z,47.00
2018-07-23T14:32:18.372Z,47.80
2018-07-23T14:34:46.416Z,48.00
2018-07-23T14:37:14.447Z,45.90
2018-07-23T14:39:42.535Z,45.90
2018-07-23T14:42:10.534Z,45.30
2018-07-23T14:44:38.572Z,46.40
2018-07-23T14:47:06.612Z,46.70
2018-07-23T14:49:34.662Z,48.30
2018-07-23T14:52:02.713Z,48.20
2018-07-23T14:54:30.756Z,46.60
2018-07-23T14:56:58.800Z,48.50
2018-07-23T14:59:26.851Z,48.20
2018-07-23T15:01:54.893Z,48.10
2018-07-23T15:04:22.956Z,47.60
2018-07-23T15:06:50.992Z,48.10
2018-07-23T15:09:19.036Z,48.30
2018-07-23T15:11:47.076Z,48.60
2018-07-23T15:14:15.133Z,47.00
2018-07-23T15:16:43.167Z,46.70
2018-07-23T15:19:11.224Z,49.40
2018-07-23T15:21:39.289Z,50.20
2018-07-23T15:24:07.357Z,49.90
2018-07-23T15:26:35.496Z,48.00
2018-07-23T15:29:03.572Z,46.60
2018-07-23T15:31:31.640Z,47.40
2018-07-23T15:33:59.815Z,46.20
2018-07-23T15:36:27.876Z,45.30
2018-07-23T15:38:55.945Z,46.70
2018-07-23T15:41:23.992Z,46.00
2018-07-23T15:43:52.160Z,46.90
2018-07-23T15:46:20.207Z,46.50
2018-07-23T15:48:48.163Z,45.30
2018-07-23T15:51:16.230Z,46.60
2018-07-23T15:53:44.280Z,45.60
2018-07-23T15:56:12.356Z,46.80
2018-07-23T15:58:40.407Z,46.90
2018-07-23T16:01:08.468Z,47.50
2018-07-23T16:03:36.532Z,47.70
2018-07-23T16:06:05.016Z,48.20
2018-07-23T16:11:01.209Z,50.70
2018-07-23T16:13:29.278Z,48.30
2018-07-23T16:15:57.368Z,48.40
2018-07-23T16:18:25.539Z,49.80
2018-07-23T16:20:53.604Z,48.90
2018-07-23T16:23:21.656Z,49.00
2018-07-23T16:25:49.719Z,48.80
2018-07-23T16:28:17.784Z,48.40
2018-07-23T16:30:45.864Z,48.50
2018-07-23T16:33:13.923Z,48.40
2018-07-23T16:35:41.997Z,49.50
2018-07-23T16:38:10.077Z,48.90
2018-07-23T16:40:38.129Z,48.70
2018-07-23T16:43:06.184Z,47.90
2018-07-23T16:45:34.284Z,48.70
2018-07-23T16:48:02.352Z,48.70
2018-07-23T16:50:30.442Z,50.00
2018-07-23T16:52:58.499Z,49.10
2018-07-23T16:55:26.568Z,49.70
2018-07-23T16:57:54.629Z,49.40
2018-07-23T17:00:22.689Z,48.50
2018-07-23T17:02:50.748Z,49.40
2018-07-23T17:05:18.872Z,50.30
2018-07-23T17:07:46.907Z,51.80
2018-07-23T17:10:14.981Z,52.50
2018-07-23T17:12:43.040Z,53.20
2018-07-23T17:15:11.112Z,53.20
2018-07-23T17:17:39.180Z,52.70
2018-07-23T17:20:07.401Z,51.50
2018-07-23T17:22:35.471Z,52.90
2018-07-23T17:25:03.523Z,52.50
2018-07-23T17:27:31.564Z,53.00
2018-07-23T17:29:59.616Z,52.70
2018-07-23T17:32:27.653Z,53.80
2018-07-23T17:34:55.744Z,54.10
2018-07-23T17:37:23.797Z,54.30
2018-07-23T17:39:51.849Z,54.90
2018-07-23T17:42:19.889Z,56.10
2018-07-23T17:44:47.989Z,56.50
2018-07-23T17:47:15.992Z,54.70
2018-07-23T17:49:44.020Z,54.60
2018-07-23T17:52:12.073Z,55.40
2018-07-23T17:54:40.107Z,55.60
2018-07-23T17:57:08.183Z,56.00
2018-07-23T17:59:36.216Z,55.80
2018-07-23T18:02:04.260Z,56.50
2018-07-23T18:04:32.396Z,56.10
2018-07-23T18:07:00.424Z,57.00
2018-07-23T18:09:28.465Z,56.80
2018-07-23T18:11:56.517Z,57.40
2018-07-23T18:14:24.553Z,56.60
2018-07-23T18:16:52.616Z,57.40
2018-07-23T18:19:20.676Z,57.00
2018-07-23T18:21:49.568Z,57.80
2018-07-23T18:24:17.636Z,57.70
2018-07-23T18:26:45.696Z,57.80
2018-07-23T18:29:13.756Z,58.10
2018-07-23T18:31:41.820Z,58.50
2018-07-23T18:34:09.884Z,58.30
2018-07-23T18:36:37.952Z,59.20
2018-07-23T18:39:08.504Z,58.90
2018-07-23T18:41:36.959Z,59.40
2018-07-23T18:44:05.085Z,59.60
2018-07-23T18:46:33.145Z,59.80
2018-07-23T18:49:53.327Z,61.60
2018-07-23T18:52:21.940Z,61.90
2018-07-23T18:54:51.345Z,62.10
2018-07-23T18:57:19.417Z,61.70
2018-07-23T18:59:47.510Z,63.00
2018-07-23T19:02:16.731Z,66.90
2018-07-23T19:04:44.912Z,70.40
2018-07-23T19:07:13.007Z,73.50
2018-07-23T19:09:41.184Z,75.60
2018-07-23T19:12:09.725Z,76.30
2018-07-23T19:14:37.780Z,75.90
2018-07-23T19:17:07.085Z,76.60
2018-07-23T19:19:35.140Z,76.70
2018-07-23T19:22:03.221Z,77.60
2018-07-23T19:24:31.292Z,78.60
2018-07-23T19:26:59.392Z,78.90
2018-07-23T19:29:27.444Z,79.20
2018-07-23T19:31:55.517Z,79.70
2018-07-23T19:34:23.592Z,80.40
2018-07-23T19:36:51.655Z,81.60
2018-07-23T19:39:20.669Z,83.90
2018-07-23T19:41:48.747Z,83.90
2018-07-23T19:44:16.783Z,84.60
2018-07-23T19:46:45.488Z,85.00
2018-07-23T19:49:13.580Z,85.10
2018-07-23T19:51:41.692Z,86.50
2018-07-23T19:54:10.396Z,87.30
2018-07-23T19:56:38.456Z,88.30
2018-07-23T19:59:06.540Z,89.60
2018-07-23T20:01:34.761Z,89.00
2018-07-23T20:04:02.833Z,89.70
2018-07-23T20:06:30.892Z,90.50
2018-07-23T20:08:59.938Z,90.40
2018-07-23T20:11:28.744Z,90.90
2018-07-23T20:13:56.816Z,91.50
2018-07-23T20:16:24.877Z,91.20
2018-07-23T20:18:52.927Z,91.90
2018-07-23T20:21:20.996Z,92.10
2018-07-23T20:23:49.057Z,92.50
2018-07-23T20:26:17.125Z,92.80
2018-07-23T20:28:45.240Z,92.90
2018-07-23T20:31:13.328Z,93.00
2018-07-23T20:33:41.388Z,92.80
2018-07-23T20:36:09.466Z,92.90
2018-07-23T20:38:37.520Z,93.20
2018-07-23T20:41:05.620Z,94.30
2018-07-23T20:43:34.048Z,95.10
2018-07-23T20:46:02.436Z,95.70
2018-07-23T20:48:30.516Z,96.30
2018-07-23T20:50:58.564Z,96.50
2018-07-23T20:53:26.624Z,97.20
2018-07-23T20:55:54.687Z,97.50
2018-07-23T20:58:23.172Z,97.40
2018-07-23T21:00:52.076Z,97.20
2018-07-23T21:03:20.168Z,97.40
2018-07-23T21:05:48.306Z,97.40
2018-07-23T21:08:16.380Z,97.40
2018-07-23T21:10:44.508Z,97.40
2018-07-23T21:13:12.570Z,97.50
2018-07-23T21:15:40.636Z,97.60
2018-07-23T21:18:08.980Z,97.80
2018-07-23T21:20:37.416Z,98.00
2018-07-23T21:23:05.916Z,98.30
2018-07-23T21:25:34.044Z,98.00
2018-07-23T21:28:02.108Z,97.80
2018-07-23T21:30:30.168Z,97.80
2018-07-23T21:32:58.233Z,98.30
2018-07-23T21:35:26.291Z,98.90
2018-07-23T21:37:54.449Z,99.30
2018-07-23T21:40:22.576Z,99.90
2018-07-23T21:42:50.648Z,99.90
2018-07-23T21:45:18.704Z,99.90
2018-07-23T21:47:46.777Z,99.90
2018-07-23T21:50:14.836Z,99.90
2018-07-23T21:52:42.905Z,99.90
2018-07-23T21:55:10.972Z,99.90
2018-07-23T21:57:39.076Z,99.90
2018-07-23T22:00:10.552Z,99.90
2018-07-23T22:02:38.801Z,99.90
2018-07-23T22:05:06.871Z,99.90
2018-07-23T22:07:34.972Z,99.90
2018-07-23T22:10:03.144Z,99.90
2018-07-23T22:12:31.203Z,99.90
2018-07-23T22:14:59.266Z,99.90
2018-07-23T22:17:27.319Z,99.90
2018-07-23T22:19:55.369Z,99.90
2018-07-23T22:22:23.420Z,99.90
2018-07-23T22:24:51.452Z,99.90
2018-07-23T22:27:19.539Z,99.90
2018-07-23T22:29:47.580Z,99.90
2018-07-23T22:32:15.635Z,99.90
2018-07-23T22:34:43.688Z,99.90
2018-07-23T22:37:11.729Z,99.90
2018-07-23T22:42:07.688Z,99.90
2018-07-23T22:44:35.697Z,99.90
2018-07-23T22:47:03.741Z,99.90
2018-07-23T22:49:31.795Z,99.90
2018-07-23T22:51:59.844Z,99.90
2018-07-23T22:54:27.900Z,99.90
2018-07-23T22:56:55.952Z,99.90
2018-07-23T22:59:23.996Z,99.90
2018-07-23T23:01:52.036Z,99.90
2018-07-23T23:04:20.088Z,99.90
2018-07-23T23:06:48.136Z,99.90
2018-07-23T23:09:16.192Z,99.90
2018-07-23T23:11:44.223Z,99.90
2018-07-23T23:14:12.321Z,99.90
2018-07-23T23:16:40.360Z,99.90
2018-07-23T23:19:08.477Z,99.90
2018-07-23T23:21:36.528Z,99.90
2018-07-23T23:24:04.617Z,99.90
2018-07-23T23:26:32.655Z,99.90
2018-07-23T23:29:00.856Z,99.90
2018-07-23T23:31:29.133Z,99.90
2018-07-23T23:33:57.189Z,99.90
2018-07-23T23:36:25.229Z,99.90
2018-07-23T23:38:53.280Z,99.90
2018-07-23T23:41:21.333Z,99.90
2018-07-23T23:43:49.391Z,99.90
2018-07-23T23:46:17.448Z,99.90
2018-07-23T23:48:45.499Z,99.90
2018-07-23T23:51:13.551Z,99.90
2018-07-23T23:53:41.596Z,99.90
2018-07-23T23:56:09.633Z,99.90
